sensor_id;sensor_type;location;lat;lon;timestamp;P1;durP1;ratioP1;P2;durP2;ratioP2
46765;SDS011;32527;51.986;5.842;2022-08-23T00:01:13;6.88;;;3.13;;
46765;SDS011;32527;51.986;5.842;2022-08-23T00:03:39;9.02;;;3.15;;
46765;SDS011;32527;51.986;5.842;2022-08-23T00:06:07;5.60;;;2.90;;
46765;SDS011;32527;51.986;5.842;2022-08-23T00:08:34;5.10;;;2.95;;
46765;SDS011;32527;51.986;5.842;2022-08-23T00:11:00;6.00;;;3.00;;
46765;SDS011;32527;51.986;5.842;2022-08-23T00:13:26;9.40;;;3.03;;
46765;SDS011;32527;51.986;5.842;2022-08-23T00:15:53;6.88;;;2.90;;
46765;SDS011;32527;51.986;5.842;2022-08-23T00:18:19;6.57;;;3.10;;
46765;SDS011;32527;51.986;5.842;2022-08-23T00:20:46;7.07;;;3.15;;
46765;SDS011;32527;51.986;5.842;2022-08-23T00:23:12;7.05;;;3.00;;
46765;SDS011;32527;51.986;5.842;2022-08-23T00:25:38;6.85;;;2.83;;
46765;SDS011;32527;51.986;5.842;2022-08-23T00:28:03;12.63;;;3.65;;
46765;SDS011;32527;51.986;5.842;2022-08-23T00:30:30;6.07;;;3.00;;
46765;SDS011;32527;51.986;5.842;2022-08-23T00:32:56;7.07;;;3.25;;
46765;SDS011;32527;51.986;5.842;2022-08-23T00:35:22;8.23;;;2.95;;
46765;SDS011;32527;51.986;5.842;2022-08-23T00:37:48;8.27;;;3.28;;
46765;SDS011;32527;51.986;5.842;2022-08-23T00:40:15;7.60;;;3.25;;
46765;SDS011;32527;51.986;5.842;2022-08-23T00:45:32;7.25;;;2.92;;
46765;SDS011;32527;51.986;5.842;2022-08-23T00:48:21;8.82;;;3.50;;
46765;SDS011;32527;51.986;5.842;2022-08-23T00:50:59;7.03;;;3.30;;
46765;SDS011;32527;51.986;5.842;2022-08-23T00:53:33;9.55;;;3.03;;
46765;SDS011;32527;51.986;5.842;2022-08-23T00:56:03;11.25;;;2.90;;
46765;SDS011;32527;51.986;5.842;2022-08-23T00:58:33;7.88;;;3.50;;
46765;SDS011;32527;51.986;5.842;2022-08-23T01:01:00;11.45;;;3.88;;
46765;SDS011;32527;51.986;5.842;2022-08-23T01:03:28;6.43;;;3.35;;
46765;SDS011;32527;51.986;5.842;2022-08-23T01:08:47;8.32;;;3.67;;
46765;SDS011;32527;51.986;5.842;2022-08-23T01:11:19;7.65;;;3.90;;
46765;SDS011;32527;51.986;5.842;2022-08-23T01:14:00;7.82;;;3.83;;
46765;SDS011;32527;51.986;5.842;2022-08-23T01:16:49;12.60;;;3.25;;
46765;SDS011;32527;51.986;5.842;2022-08-23T01:19:34;7.38;;;3.05;;
46765;SDS011;32527;51.986;5.842;2022-08-23T01:22:10;6.05;;;3.10;;
46765;SDS011;32527;51.986;5.842;2022-08-23T01:24:41;8.82;;;3.30;;
46765;SDS011;32527;51.986;5.842;2022-08-23T01:27:09;7.45;;;3.15;;
46765;SDS011;32527;51.986;5.842;2022-08-23T01:29:36;8.57;;;3.40;;
46765;SDS011;32527;51.986;5.842;2022-08-23T01:32:03;9.35;;;3.50;;
46765;SDS011;32527;51.986;5.842;2022-08-23T01:34:29;6.43;;;3.05;;
46765;SDS011;32527;51.986;5.842;2022-08-23T01:36:55;7.63;;;3.22;;
46765;SDS011;32527;51.986;5.842;2022-08-23T01:39:22;10.65;;;4.03;;
46765;SDS011;32527;51.986;5.842;2022-08-23T01:41:48;7.97;;;3.10;;
46765;SDS011;32527;51.986;5.842;2022-08-23T01:44:15;6.78;;;3.35;;
46765;SDS011;32527;51.986;5.842;2022-08-23T01:46:43;7.03;;;3.47;;
46765;SDS011;32527;51.986;5.842;2022-08-23T01:49:11;7.38;;;3.35;;
46765;SDS011;32527;51.986;5.842;2022-08-23T01:51:37;8.48;;;3.50;;
46765;SDS011;32527;51.986;5.842;2022-08-23T01:54:03;7.80;;;4.10;;
46765;SDS011;32527;51.986;5.842;2022-08-23T01:56:30;10.32;;;4.68;;
46765;SDS011;32527;51.986;5.842;2022-08-23T01:58:57;9.18;;;3.70;;
46765;SDS011;32527;51.986;5.842;2022-08-23T02:01:28;5.70;;;3.35;;
46765;SDS011;32527;51.986;5.842;2022-08-23T02:03:54;5.68;;;3.75;;
46765;SDS011;32527;51.986;5.842;2022-08-23T02:06:20;6.80;;;3.63;;
46765;SDS011;32527;51.986;5.842;2022-08-23T02:08:47;7.95;;;3.33;;
46765;SDS011;32527;51.986;5.842;2022-08-23T02:11:31;8.15;;;3.40;;
46765;SDS011;32527;51.986;5.842;2022-08-23T02:14:04;10.57;;;3.47;;
46765;SDS011;32527;51.986;5.842;2022-08-23T02:16:41;5.82;;;3.17;;
46765;SDS011;32527;51.986;5.842;2022-08-23T02:19:11;6.10;;;3.45;;
46765;SDS011;32527;51.986;5.842;2022-08-23T02:21:38;7.15;;;3.65;;
46765;SDS011;32527;51.986;5.842;2022-08-23T02:24:05;9.90;;;4.03;;
46765;SDS011;32527;51.986;5.842;2022-08-23T02:26:35;10.10;;;3.92;;
46765;SDS011;32527;51.986;5.842;2022-08-23T02:29:04;7.70;;;4.35;;
46765;SDS011;32527;51.986;5.842;2022-08-23T02:31:31;15.32;;;4.72;;
46765;SDS011;32527;51.986;5.842;2022-08-23T02:33:58;8.45;;;3.97;;
46765;SDS011;32527;51.986;5.842;2022-08-23T02:36:27;8.25;;;3.65;;
46765;SDS011;32527;51.986;5.842;2022-08-23T02:38:54;8.77;;;4.32;;
46765;SDS011;32527;51.986;5.842;2022-08-23T02:41:21;6.40;;;3.97;;
46765;SDS011;32527;51.986;5.842;2022-08-23T02:43:50;6.88;;;3.90;;
46765;SDS011;32527;51.986;5.842;2022-08-23T02:46:18;7.95;;;4.30;;
46765;SDS011;32527;51.986;5.842;2022-08-23T02:48:45;12.45;;;4.43;;
46765;SDS011;32527;51.986;5.842;2022-08-23T02:51:12;11.20;;;4.13;;
46765;SDS011;32527;51.986;5.842;2022-08-23T02:53:38;10.88;;;4.88;;
46765;SDS011;32527;51.986;5.842;2022-08-23T02:56:06;8.52;;;3.97;;
46765;SDS011;32527;51.986;5.842;2022-08-23T02:58:32;10.15;;;4.60;;
46765;SDS011;32527;51.986;5.842;2022-08-23T03:00:59;8.73;;;4.43;;
46765;SDS011;32527;51.986;5.842;2022-08-23T03:03:27;10.05;;;4.40;;
46765;SDS011;32527;51.986;5.842;2022-08-23T03:05:54;8.52;;;3.95;;
46765;SDS011;32527;51.986;5.842;2022-08-23T03:08:20;8.07;;;3.95;;
46765;SDS011;32527;51.986;5.842;2022-08-23T03:10:48;8.48;;;4.30;;
46765;SDS011;32527;51.986;5.842;2022-08-23T03:13:15;8.82;;;4.00;;
46765;SDS011;32527;51.986;5.842;2022-08-23T03:15:42;12.13;;;5.70;;
46765;SDS011;32527;51.986;5.842;2022-08-23T03:18:10;9.25;;;4.15;;
46765;SDS011;32527;51.986;5.842;2022-08-23T03:20:38;10.75;;;4.32;;
46765;SDS011;32527;51.986;5.842;2022-08-23T03:23:07;11.55;;;4.53;;
46765;SDS011;32527;51.986;5.842;2022-08-23T03:25:33;8.75;;;4.07;;
46765;SDS011;32527;51.986;5.842;2022-08-23T03:28:13;7.47;;;3.95;;
46765;SDS011;32527;51.986;5.842;2022-08-23T03:30:42;10.15;;;4.90;;
46765;SDS011;32527;51.986;5.842;2022-08-23T03:33:09;7.88;;;5.20;;
46765;SDS011;32527;51.986;5.842;2022-08-23T03:35:35;7.55;;;3.95;;
46765;SDS011;32527;51.986;5.842;2022-08-23T03:38:02;8.48;;;4.38;;
46765;SDS011;32527;51.986;5.842;2022-08-23T03:40:28;10.30;;;4.25;;
46765;SDS011;32527;51.986;5.842;2022-08-23T03:42:54;6.53;;;4.35;;
46765;SDS011;32527;51.986;5.842;2022-08-23T03:45:22;9.68;;;4.50;;
46765;SDS011;32527;51.986;5.842;2022-08-23T03:47:48;9.82;;;5.80;;
46765;SDS011;32527;51.986;5.842;2022-08-23T03:50:15;8.00;;;4.68;;
46765;SDS011;32527;51.986;5.842;2022-08-23T03:52:41;8.18;;;4.30;;
46765;SDS011;32527;51.986;5.842;2022-08-23T03:55:08;12.23;;;5.07;;
46765;SDS011;32527;51.986;5.842;2022-08-23T03:57:36;10.70;;;4.82;;
46765;SDS011;32527;51.986;5.842;2022-08-23T04:00:04;9.65;;;4.63;;
46765;SDS011;32527;51.986;5.842;2022-08-23T04:02:39;6.63;;;4.10;;
46765;SDS011;32527;51.986;5.842;2022-08-23T04:05:07;10.88;;;4.53;;
46765;SDS011;32527;51.986;5.842;2022-08-23T04:07:43;13.45;;;5.68;;
46765;SDS011;32527;51.986;5.842;2022-08-23T04:10:09;7.72;;;4.70;;
46765;SDS011;32527;51.986;5.842;2022-08-23T04:12:39;9.60;;;5.15;;
46765;SDS011;32527;51.986;5.842;2022-08-23T04:15:11;14.23;;;5.45;;
46765;SDS011;32527;51.986;5.842;2022-08-23T04:17:38;7.28;;;4.78;;
46765;SDS011;32527;51.986;5.842;2022-08-23T04:20:04;7.70;;;4.97;;
46765;SDS011;32527;51.986;5.842;2022-08-23T04:22:35;13.25;;;5.07;;
46765;SDS011;32527;51.986;5.842;2022-08-23T04:25:00;7.85;;;4.57;;
46765;SDS011;32527;51.986;5.842;2022-08-23T04:27:27;11.25;;;5.13;;
46765;SDS011;32527;51.986;5.842;2022-08-23T04:29:53;11.07;;;4.82;;
46765;SDS011;32527;51.986;5.842;2022-08-23T04:32:19;8.80;;;4.82;;
46765;SDS011;32527;51.986;5.842;2022-08-23T04:34:45;10.20;;;5.57;;
46765;SDS011;32527;51.986;5.842;2022-08-23T04:37:13;9.65;;;5.90;;
46765;SDS011;32527;51.986;5.842;2022-08-23T04:39:40;11.40;;;5.97;;
46765;SDS011;32527;51.986;5.842;2022-08-23T04:42:33;10.35;;;6.10;;
46765;SDS011;32527;51.986;5.842;2022-08-23T04:44:58;10.10;;;5.75;;
46765;SDS011;32527;51.986;5.842;2022-08-23T04:47:25;10.52;;;5.95;;
46765;SDS011;32527;51.986;5.842;2022-08-23T04:49:54;8.57;;;5.10;;
46765;SDS011;32527;51.986;5.842;2022-08-23T04:52:21;10.20;;;5.70;;
46765;SDS011;32527;51.986;5.842;2022-08-23T04:54:47;10.70;;;5.78;;
46765;SDS011;32527;51.986;5.842;2022-08-23T04:57:33;11.00;;;6.78;;
46765;SDS011;32527;51.986;5.842;2022-08-23T04:59:59;7.70;;;5.60;;
46765;SDS011;32527;51.986;5.842;2022-08-23T05:02:25;9.63;;;5.63;;
46765;SDS011;32527;51.986;5.842;2022-08-23T05:04:53;13.60;;;5.60;;
46765;SDS011;32527;51.986;5.842;2022-08-23T05:07:19;10.80;;;6.00;;
46765;SDS011;32527;51.986;5.842;2022-08-23T05:09:45;9.82;;;6.50;;
46765;SDS011;32527;51.986;5.842;2022-08-23T05:12:11;11.95;;;5.60;;
46765;SDS011;32527;51.986;5.842;2022-08-23T05:14:38;10.35;;;5.40;;
46765;SDS011;32527;51.986;5.842;2022-08-23T05:17:03;9.70;;;6.05;;
46765;SDS011;32527;51.986;5.842;2022-08-23T05:19:33;10.07;;;5.75;;
46765;SDS011;32527;51.986;5.842;2022-08-23T05:21:59;11.70;;;6.00;;
46765;SDS011;32527;51.986;5.842;2022-08-23T05:24:45;12.93;;;6.55;;
46765;SDS011;32527;51.986;5.842;2022-08-23T05:27:11;10.20;;;6.00;;
46765;SDS011;32527;51.986;5.842;2022-08-23T05:29:37;17.77;;;7.03;;
46765;SDS011;32527;51.986;5.842;2022-08-23T05:32:06;9.95;;;7.28;;
46765;SDS011;32527;51.986;5.842;2022-08-23T05:34:32;9.95;;;7.20;;
46765;SDS011;32527;51.986;5.842;2022-08-23T05:37:02;10.90;;;7.05;;
46765;SDS011;32527;51.986;5.842;2022-08-23T05:39:37;16.42;;;8.57;;
46765;SDS011;32527;51.986;5.842;2022-08-23T05:42:06;13.30;;;7.85;;
46765;SDS011;32527;51.986;5.842;2022-08-23T05:44:35;10.00;;;6.50;;
46765;SDS011;32527;51.986;5.842;2022-08-23T05:47:01;9.85;;;6.97;;
46765;SDS011;32527;51.986;5.842;2022-08-23T05:49:34;12.00;;;7.60;;
46765;SDS011;32527;51.986;5.842;2022-08-23T05:52:03;14.32;;;8.25;;
46765;SDS011;32527;51.986;5.842;2022-08-23T05:54:35;11.20;;;8.33;;
46765;SDS011;32527;51.986;5.842;2022-08-23T05:57:23;15.40;;;7.78;;
46765;SDS011;32527;51.986;5.842;2022-08-23T05:59:49;16.95;;;8.80;;
46765;SDS011;32527;51.986;5.842;2022-08-23T06:02:15;16.33;;;7.03;;
46765;SDS011;32527;51.986;5.842;2022-08-23T06:04:41;12.82;;;7.45;;
46765;SDS011;32527;51.986;5.842;2022-08-23T06:07:07;12.93;;;7.63;;
46765;SDS011;32527;51.986;5.842;2022-08-23T06:09:33;13.32;;;8.55;;
46765;SDS011;32527;51.986;5.842;2022-08-23T06:11:59;11.38;;;7.82;;
46765;SDS011;32527;51.986;5.842;2022-08-23T06:14:25;14.40;;;7.82;;
46765;SDS011;32527;51.986;5.842;2022-08-23T06:16:52;14.75;;;7.45;;
46765;SDS011;32527;51.986;5.842;2022-08-23T06:19:21;13.48;;;7.35;;
46765;SDS011;32527;51.986;5.842;2022-08-23T06:21:47;14.80;;;7.45;;
46765;SDS011;32527;51.986;5.842;2022-08-23T06:24:35;15.93;;;7.95;;
46765;SDS011;32527;51.986;5.842;2022-08-23T06:27:10;12.38;;;7.65;;
46765;SDS011;32527;51.986;5.842;2022-08-23T06:29:37;11.43;;;6.82;;
46765;SDS011;32527;51.986;5.842;2022-08-23T06:32:21;10.40;;;6.63;;
46765;SDS011;32527;51.986;5.842;2022-08-23T06:35:07;13.55;;;7.82;;
46765;SDS011;32527;51.986;5.842;2022-08-23T06:37:51;17.48;;;9.35;;
46765;SDS011;32527;51.986;5.842;2022-08-23T06:40:43;11.70;;;7.13;;
46765;SDS011;32527;51.986;5.842;2022-08-23T06:43:35;12.82;;;6.80;;
46765;SDS011;32527;51.986;5.842;2022-08-23T06:46:21;10.60;;;6.68;;
46765;SDS011;32527;51.986;5.842;2022-08-23T06:48:49;11.40;;;7.18;;
46765;SDS011;32527;51.986;5.842;2022-08-23T06:54:11;10.10;;;6.85;;
46765;SDS011;32527;51.986;5.842;2022-08-23T06:56:53;8.55;;;6.07;;
46765;SDS011;32527;51.986;5.842;2022-08-23T06:59:28;11.18;;;7.40;;
46765;SDS011;32527;51.986;5.842;2022-08-23T07:02:11;12.38;;;6.80;;
46765;SDS011;32527;51.986;5.842;2022-08-23T07:05:04;8.45;;;5.70;;
46765;SDS011;32527;51.986;5.842;2022-08-23T07:07:57;13.75;;;5.80;;
46765;SDS011;32527;51.986;5.842;2022-08-23T07:10:22;9.00;;;4.97;;
46765;SDS011;32527;51.986;5.842;2022-08-23T07:12:49;10.05;;;5.32;;
46765;SDS011;32527;51.986;5.842;2022-08-23T07:15:18;6.72;;;4.88;;
46765;SDS011;32527;51.986;5.842;2022-08-23T07:17:45;15.85;;;6.60;;
46765;SDS011;32527;51.986;5.842;2022-08-23T07:20:11;9.90;;;4.32;;
46765;SDS011;32527;51.986;5.842;2022-08-23T07:22:40;12.02;;;5.28;;
46765;SDS011;32527;51.986;5.842;2022-08-23T07:25:08;9.73;;;5.65;;
46765;SDS011;32527;51.986;5.842;2022-08-23T07:27:35;11.52;;;6.07;;
46765;SDS011;32527;51.986;5.842;2022-08-23T07:30:04;10.95;;;5.95;;
46765;SDS011;32527;51.986;5.842;2022-08-23T07:32:32;9.57;;;5.93;;
46765;SDS011;32527;51.986;5.842;2022-08-23T07:35:08;13.32;;;6.18;;
46765;SDS011;32527;51.986;5.842;2022-08-23T07:37:37;11.93;;;5.43;;
46765;SDS011;32527;51.986;5.842;2022-08-23T07:40:05;9.85;;;5.80;;
46765;SDS011;32527;51.986;5.842;2022-08-23T07:42:33;12.45;;;7.35;;
46765;SDS011;32527;51.986;5.842;2022-08-23T07:44:58;11.68;;;6.40;;
46765;SDS011;32527;51.986;5.842;2022-08-23T07:47:25;12.50;;;5.97;;
46765;SDS011;32527;51.986;5.842;2022-08-23T07:49:54;11.30;;;6.90;;
46765;SDS011;32527;51.986;5.842;2022-08-23T07:52:20;12.88;;;5.50;;
46765;SDS011;32527;51.986;5.842;2022-08-23T07:54:47;13.02;;;7.00;;
46765;SDS011;32527;51.986;5.842;2022-08-23T07:57:36;11.98;;;6.20;;
46765;SDS011;32527;51.986;5.842;2022-08-23T08:00:27;11.60;;;5.90;;
46765;SDS011;32527;51.986;5.842;2022-08-23T08:05:57;10.93;;;6.25;;
46765;SDS011;32527;51.986;5.842;2022-08-23T08:08:25;11.23;;;5.93;;
46765;SDS011;32527;51.986;5.842;2022-08-23T08:10:52;13.18;;;6.88;;
46765;SDS011;32527;51.986;5.842;2022-08-23T08:13:19;15.70;;;6.55;;
46765;SDS011;32527;51.986;5.842;2022-08-23T08:15:45;15.48;;;6.50;;
46765;SDS011;32527;51.986;5.842;2022-08-23T08:18:13;13.30;;;7.25;;
46765;SDS011;32527;51.986;5.842;2022-08-23T08:20:57;15.38;;;7.15;;
46765;SDS011;32527;51.986;5.842;2022-08-23T08:23:55;11.80;;;5.68;;
46765;SDS011;32527;51.986;5.842;2022-08-23T08:26:45;14.75;;;6.50;;
46765;SDS011;32527;51.986;5.842;2022-08-23T08:29:12;11.18;;;5.65;;
46765;SDS011;32527;51.986;5.842;2022-08-23T08:31:41;16.15;;;7.50;;
46765;SDS011;32527;51.986;5.842;2022-08-23T08:34:10;11.98;;;5.72;;
46765;SDS011;32527;51.986;5.842;2022-08-23T08:36:45;11.60;;;6.10;;
46765;SDS011;32527;51.986;5.842;2022-08-23T08:39:18;10.13;;;4.57;;
46765;SDS011;32527;51.986;5.842;2022-08-23T08:47:27;11.13;;;5.13;;
46765;SDS011;32527;51.986;5.842;2022-08-23T08:50:39;12.93;;;5.38;;
46765;SDS011;32527;51.986;5.842;2022-08-23T08:53:09;15.02;;;5.88;;
46765;SDS011;32527;51.986;5.842;2022-08-23T08:56:20;12.75;;;5.97;;
46765;SDS011;32527;51.986;5.842;2022-08-23T08:59:05;14.07;;;6.47;;
46765;SDS011;32527;51.986;5.842;2022-08-23T09:01:36;9.95;;;5.00;;
46765;SDS011;32527;51.986;5.842;2022-08-23T09:04:03;14.55;;;5.75;;
46765;SDS011;32527;51.986;5.842;2022-08-23T09:06:48;12.00;;;6.32;;
46765;SDS011;32527;51.986;5.842;2022-08-23T09:18:07;15.93;;;6.50;;
46765;SDS011;32527;51.986;5.842;2022-08-23T09:20:36;13.90;;;5.63;;
46765;SDS011;32527;51.986;5.842;2022-08-23T09:25:57;12.07;;;4.70;;
46765;SDS011;32527;51.986;5.842;2022-08-23T09:28:29;8.27;;;3.63;;
46765;SDS011;32527;51.986;5.842;2022-08-23T09:30:59;9.10;;;4.72;;
46765;SDS011;32527;51.986;5.842;2022-08-23T09:36:25;8.48;;;3.92;;
46765;SDS011;32527;51.986;5.842;2022-08-23T09:41:40;14.50;;;5.20;;
46765;SDS011;32527;51.986;5.842;2022-08-23T09:44:09;9.77;;;4.65;;
46765;SDS011;32527;51.986;5.842;2022-08-23T09:46:37;10.35;;;4.65;;
46765;SDS011;32527;51.986;5.842;2022-08-23T09:49:27;13.02;;;4.50;;
46765;SDS011;32527;51.986;5.842;2022-08-23T09:55:07;10.90;;;5.18;;
46765;SDS011;32527;51.986;5.842;2022-08-23T09:57:44;15.15;;;6.53;;
46765;SDS011;32527;51.986;5.842;2022-08-23T10:02:40;9.80;;;5.80;;
46765;SDS011;32527;51.986;5.842;2022-08-23T10:05:19;10.87;;;5.63;;
46765;SDS011;32527;51.986;5.842;2022-08-23T10:08:01;12.18;;;5.80;;
46765;SDS011;32527;51.986;5.842;2022-08-23T10:13:11;11.05;;;5.03;;
46765;SDS011;32527;51.986;5.842;2022-08-23T10:20:55;8.73;;;4.28;;
46765;SDS011;32527;51.986;5.842;2022-08-23T10:26:34;10.23;;;4.40;;
46765;SDS011;32527;51.986;5.842;2022-08-23T10:32:21;11.70;;;5.00;;
46765;SDS011;32527;51.986;5.842;2022-08-23T10:37:33;10.82;;;4.75;;
46765;SDS011;32527;51.986;5.842;2022-08-23T10:43:07;11.57;;;4.95;;
46765;SDS011;32527;51.986;5.842;2022-08-23T10:45:39;8.88;;;4.10;;
46765;SDS011;32527;51.986;5.842;2022-08-23T10:48:20;8.32;;;3.75;;
46765;SDS011;32527;51.986;5.842;2022-08-23T10:51:00;9.40;;;3.30;;
46765;SDS011;32527;51.986;5.842;2022-08-23T10:53:42;8.10;;;3.80;;
46765;SDS011;32527;51.986;5.842;2022-08-23T10:56:17;7.68;;;3.30;;
46765;SDS011;32527;51.986;5.842;2022-08-23T10:58:54;9.55;;;3.00;;
46765;SDS011;32527;51.986;5.842;2022-08-23T11:04:04;8.18;;;3.30;;
46765;SDS011;32527;51.986;5.842;2022-08-23T11:06:55;10.82;;;3.63;;
46765;SDS011;32527;51.986;5.842;2022-08-23T11:17:00;13.00;;;3.25;;
46765;SDS011;32527;51.986;5.842;2022-08-23T11:19:50;8.45;;;3.47;;
46765;SDS011;32527;51.986;5.842;2022-08-23T11:22:24;8.45;;;3.65;;
46765;SDS011;32527;51.986;5.842;2022-08-23T11:27:41;8.98;;;3.97;;
46765;SDS011;32527;51.986;5.842;2022-08-23T11:33:14;9.70;;;3.58;;
46765;SDS011;32527;51.986;5.842;2022-08-23T11:35:47;9.10;;;3.58;;
46765;SDS011;32527;51.986;5.842;2022-08-23T11:38:17;10.88;;;4.25;;
46765;SDS011;32527;51.986;5.842;2022-08-23T11:41:58;8.55;;;3.30;;
46765;SDS011;32527;51.986;5.842;2022-08-23T11:46:30;12.50;;;3.20;;
46765;SDS011;32527;51.986;5.842;2022-08-23T11:56:58;9.63;;;3.60;;
46765;SDS011;32527;51.986;5.842;2022-08-23T12:07:45;13.15;;;3.97;;
46765;SDS011;32527;51.986;5.842;2022-08-23T12:10:21;10.52;;;4.22;;
46765;SDS011;32527;51.986;5.842;2022-08-23T12:23:48;9.75;;;4.80;;
46765;SDS011;32527;51.986;5.842;2022-08-23T12:27:05;13.88;;;5.05;;
46765;SDS011;32527;51.986;5.842;2022-08-23T12:29:28;11.88;;;4.47;;
46765;SDS011;32527;51.986;5.842;2022-08-23T12:32:30;10.18;;;4.00;;
46765;SDS011;32527;51.986;5.842;2022-08-23T12:35:17;12.55;;;4.38;;
46765;SDS011;32527;51.986;5.842;2022-08-23T12:40:20;10.98;;;3.70;;
46765;SDS011;32527;51.986;5.842;2022-08-23T12:43:01;9.52;;;3.50;;
46765;SDS011;32527;51.986;5.842;2022-08-23T12:45:53;10.88;;;3.72;;
46765;SDS011;32527;51.986;5.842;2022-08-23T12:48:22;5.45;;;3.40;;
46765;SDS011;32527;51.986;5.842;2022-08-23T12:53:26;7.85;;;3.28;;
46765;SDS011;32527;51.986;5.842;2022-08-23T12:56:03;9.38;;;3.45;;
46765;SDS011;32527;51.986;5.842;2022-08-23T12:58:32;10.85;;;3.65;;
46765;SDS011;32527;51.986;5.842;2022-08-23T13:01:06;7.68;;;3.55;;
46765;SDS011;32527;51.986;5.842;2022-08-23T13:03:42;9.65;;;4.55;;
46765;SDS011;32527;51.986;5.842;2022-08-23T13:06:13;12.55;;;3.17;;
46765;SDS011;32527;51.986;5.842;2022-08-23T13:11:21;8.52;;;3.65;;
46765;SDS011;32527;51.986;5.842;2022-08-23T13:13:49;9.55;;;3.50;;
46765;SDS011;32527;51.986;5.842;2022-08-23T13:24:35;8.80;;;2.95;;
46765;SDS011;32527;51.986;5.842;2022-08-23T13:27:10;7.72;;;2.90;;
46765;SDS011;32527;51.986;5.842;2022-08-23T13:29:51;6.28;;;2.70;;
46765;SDS011;32527;51.986;5.842;2022-08-23T13:32:23;10.80;;;3.17;;
46765;SDS011;32527;51.986;5.842;2022-08-23T13:37:47;6.38;;;2.83;;
46765;SDS011;32527;51.986;5.842;2022-08-23T13:40:17;8.15;;;2.85;;
46765;SDS011;32527;51.986;5.842;2022-08-23T13:42:47;10.48;;;3.00;;
46765;SDS011;32527;51.986;5.842;2022-08-23T13:45:21;9.93;;;3.00;;
46765;SDS011;32527;51.986;5.842;2022-08-23T13:47:54;6.50;;;2.42;;
46765;SDS011;32527;51.986;5.842;2022-08-23T13:50:31;7.22;;;2.65;;
46765;SDS011;32527;51.986;5.842;2022-08-23T13:52:58;6.95;;;2.60;;
46765;SDS011;32527;51.986;5.842;2022-08-23T13:55:25;9.18;;;2.47;;
46765;SDS011;32527;51.986;5.842;2022-08-23T13:57:52;8.68;;;2.75;;
46765;SDS011;32527;51.986;5.842;2022-08-23T14:00:19;9.00;;;3.08;;
46765;SDS011;32527;51.986;5.842;2022-08-23T14:02:45;5.07;;;2.30;;
46765;SDS011;32527;51.986;5.842;2022-08-23T14:05:13;6.32;;;2.92;;
46765;SDS011;32527;51.986;5.842;2022-08-23T14:07:41;6.65;;;3.00;;
46765;SDS011;32527;51.986;5.842;2022-08-23T14:10:08;6.22;;;2.50;;
46765;SDS011;32527;51.986;5.842;2022-08-23T14:12:34;11.40;;;2.85;;
46765;SDS011;32527;51.986;5.842;2022-08-23T14:15:01;7.72;;;2.80;;
46765;SDS011;32527;51.986;5.842;2022-08-23T14:17:28;5.75;;;2.63;;
46765;SDS011;32527;51.986;5.842;2022-08-23T14:19:59;5.30;;;2.35;;
46765;SDS011;32527;51.986;5.842;2022-08-23T14:22:26;4.53;;;2.22;;
46765;SDS011;32527;51.986;5.842;2022-08-23T14:24:51;4.97;;;2.50;;
46765;SDS011;32527;51.986;5.842;2022-08-23T14:27:17;8.07;;;2.75;;
46765;SDS011;32527;51.986;5.842;2022-08-23T14:29:43;6.97;;;2.33;;
46765;SDS011;32527;51.986;5.842;2022-08-23T14:32:08;7.55;;;2.60;;
46765;SDS011;32527;51.986;5.842;2022-08-23T14:34:34;8.88;;;2.67;;
46765;SDS011;32527;51.986;5.842;2022-08-23T14:37:00;5.13;;;2.40;;
46765;SDS011;32527;51.986;5.842;2022-08-23T14:39:25;6.50;;;2.22;;
46765;SDS011;32527;51.986;5.842;2022-08-23T14:41:51;6.20;;;2.33;;
46765;SDS011;32527;51.986;5.842;2022-08-23T14:44:17;5.60;;;1.95;;
46765;SDS011;32527;51.986;5.842;2022-08-23T14:46:43;8.48;;;2.17;;
46765;SDS011;32527;51.986;5.842;2022-08-23T14:49:10;6.40;;;2.20;;
46765;SDS011;32527;51.986;5.842;2022-08-23T14:51:38;8.55;;;2.78;;
46765;SDS011;32527;51.986;5.842;2022-08-23T14:54:06;3.83;;;2.10;;
46765;SDS011;32527;51.986;5.842;2022-08-23T14:56:35;10.23;;;3.78;;
46765;SDS011;32527;51.986;5.842;2022-08-23T14:59:00;5.82;;;3.17;;
46765;SDS011;32527;51.986;5.842;2022-08-23T15:01:26;4.70;;;2.30;;
46765;SDS011;32527;51.986;5.842;2022-08-23T15:03:52;5.10;;;2.30;;
46765;SDS011;32527;51.986;5.842;2022-08-23T15:06:18;5.80;;;2.50;;
46765;SDS011;32527;51.986;5.842;2022-08-23T15:08:44;4.22;;;2.50;;
46765;SDS011;32527;51.986;5.842;2022-08-23T15:11:10;9.68;;;3.00;;
46765;SDS011;32527;51.986;5.842;2022-08-23T15:13:37;8.63;;;2.75;;
46765;SDS011;32527;51.986;5.842;2022-08-23T15:16:03;6.68;;;2.60;;
46765;SDS011;32527;51.986;5.842;2022-08-23T15:18:31;5.53;;;3.13;;
46765;SDS011;32527;51.986;5.842;2022-08-23T15:20:58;7.43;;;2.50;;
46765;SDS011;32527;51.986;5.842;2022-08-23T15:23:24;5.65;;;2.30;;
46765;SDS011;32527;51.986;5.842;2022-08-23T15:25:50;4.15;;;1.80;;
46765;SDS011;32527;51.986;5.842;2022-08-23T15:28:17;6.63;;;2.50;;
46765;SDS011;32527;51.986;5.842;2022-08-23T15:30:44;5.53;;;3.42;;
46765;SDS011;32527;51.986;5.842;2022-08-23T15:33:10;7.93;;;3.97;;
46765;SDS011;32527;51.986;5.842;2022-08-23T15:35:47;7.90;;;3.58;;
46765;SDS011;32527;51.986;5.842;2022-08-23T15:38:19;7.32;;;2.92;;
46765;SDS011;32527;51.986;5.842;2022-08-23T15:40:47;5.07;;;2.38;;
46765;SDS011;32527;51.986;5.842;2022-08-23T15:43:14;4.93;;;2.50;;
46765;SDS011;32527;51.986;5.842;2022-08-23T15:45:40;5.03;;;2.45;;
46765;SDS011;32527;51.986;5.842;2022-08-23T15:48:11;5.47;;;2.35;;
46765;SDS011;32527;51.986;5.842;2022-08-23T15:50:50;5.28;;;2.30;;
46765;SDS011;32527;51.986;5.842;2022-08-23T15:53:17;4.45;;;2.28;;
46765;SDS011;32527;51.986;5.842;2022-08-23T15:55:43;5.60;;;2.17;;
46765;SDS011;32527;51.986;5.842;2022-08-23T15:58:14;4.65;;;2.03;;
46765;SDS011;32527;51.986;5.842;2022-08-23T16:00:42;4.93;;;2.72;;
46765;SDS011;32527;51.986;5.842;2022-08-23T16:03:09;4.43;;;2.00;;
46765;SDS011;32527;51.986;5.842;2022-08-23T16:05:38;5.13;;;2.40;;
46765;SDS011;32527;51.986;5.842;2022-08-23T16:08:06;6.30;;;2.13;;
46765;SDS011;32527;51.986;5.842;2022-08-23T16:10:32;6.18;;;2.60;;
46765;SDS011;32527;51.986;5.842;2022-08-23T16:12:58;4.95;;;2.00;;
46765;SDS011;32527;51.986;5.842;2022-08-23T16:15:24;3.88;;;2.38;;
46765;SDS011;32527;51.986;5.842;2022-08-23T16:17:49;3.00;;;1.95;;
46765;SDS011;32527;51.986;5.842;2022-08-23T16:20:15;3.63;;;2.00;;
46765;SDS011;32527;51.986;5.842;2022-08-23T16:22:41;7.93;;;2.53;;
46765;SDS011;32527;51.986;5.842;2022-08-23T16:25:08;3.70;;;1.75;;
46765;SDS011;32527;51.986;5.842;2022-08-23T16:27:34;5.10;;;2.33;;
46765;SDS011;32527;51.986;5.842;2022-08-23T16:30:00;3.88;;;1.80;;
46765;SDS011;32527;51.986;5.842;2022-08-23T16:32:26;3.83;;;2.13;;
46765;SDS011;32527;51.986;5.842;2022-08-23T16:34:52;5.15;;;1.90;;
46765;SDS011;32527;51.986;5.842;2022-08-23T16:37:18;5.00;;;2.42;;
46765;SDS011;32527;51.986;5.842;2022-08-23T16:39:44;7.60;;;2.40;;
46765;SDS011;32527;51.986;5.842;2022-08-23T16:42:10;6.68;;;2.30;;
46765;SDS011;32527;51.986;5.842;2022-08-23T16:44:36;4.55;;;2.00;;
46765;SDS011;32527;51.986;5.842;2022-08-23T16:47:02;7.35;;;2.40;;
46765;SDS011;32527;51.986;5.842;2022-08-23T16:49:30;3.25;;;2.13;;
46765;SDS011;32527;51.986;5.842;2022-08-23T16:51:57;6.28;;;2.88;;
46765;SDS011;32527;51.986;5.842;2022-08-23T16:54:23;5.93;;;2.10;;
46765;SDS011;32527;51.986;5.842;2022-08-23T16:56:49;4.60;;;2.13;;
46765;SDS011;32527;51.986;5.842;2022-08-23T16:59:15;5.40;;;2.00;;
46765;SDS011;32527;51.986;5.842;2022-08-23T17:01:51;5.22;;;2.25;;
46765;SDS011;32527;51.986;5.842;2022-08-23T17:04:18;5.00;;;2.35;;
46765;SDS011;32527;51.986;5.842;2022-08-23T17:06:45;5.72;;;2.83;;
46765;SDS011;32527;51.986;5.842;2022-08-23T17:09:11;3.28;;;2.03;;